Time;durP1;ratioP1;P1;durP2;ratioP2;P2;SDS_P1;SDS_P2;PMS_P1;PMS_P2;Temp;Humidity;BMP_temperature;BMP_pressure;BME280_temperature;BME280_humidity;BME280_pressure;Samples;Min_cycle;Max_cycle;Signal;HPM_P1;HPM_P2
2021/10/07 00:00:36;;;;;;;11.65;1.90;;;;;;;18.81;64.82;101311.94;5066016;28;20040;-86
2021/10/07 00:03:01;;;;;;;9.70;1.70;;;;;;;18.83;64.94;101316.13;5051699;28;20025;-86
2021/10/07 00:05:27;;;;;;;6.07;1.52;;;;;;;18.58;65.55;101305.94;5051547;28;20067;-86
2021/10/07 00:07:53;;;;;;;9.05;1.85;;;;;;;18.42;66.36;101309.09;5069190;28;20134;-86
2021/10/07 00:10:19;;;;;;;14.13;1.83;;;;;;;18.50;65.99;101308.44;5054641;28;20032;-86
2021/10/07 00:12:44;;;;;;;12.60;2.13;;;;;;;18.54;65.94;101310.69;5051654;28;20472;-86
2021/10/07 00:15:10;;;;;;;9.77;1.73;;;;;;;18.54;65.87;101308.03;5051949;28;20036;-85
2021/10/07 00:17:35;;;;;;;11.05;2.30;;;;;;;18.50;66.02;101309.25;5071355;28;20029;-85
2021/10/07 00:20:03;;;;;;;6.72;1.75;;;;;;;18.45;66.27;101305.34;5071531;28;20371;-85
2021/10/07 00:22:29;;;;;;;10.18;1.65;;;;;;;18.35;66.50;101302.63;5071556;28;20021;-85
2021/10/07 00:24:54;;;;;;;5.50;1.00;;;;;;;18.32;66.85;101311.69;5060281;28;20091;-85
2021/10/07 00:27:20;;;;;;;8.52;1.60;;;;;;;18.61;65.97;101303.84;5068798;28;20383;-86
2021/10/07 00:29:46;;;;;;;10.73;2.47;;;;;;;18.56;65.67;101299.91;5071402;28;20544;-85
2021/10/07 00:32:25;;;;;;;11.35;1.60;;;;;;;18.65;65.80;101306.25;5071694;28;20024;-86
2021/10/07 00:40:07;;;;;;;11.68;3.13;;;;;;;18.61;66.24;101298.53;5059216;28;20086;-85
2021/10/07 00:42:32;;;;;;;11.25;2.20;;;;;;;18.66;65.72;101298.16;5054345;28;20028;-86
2021/10/07 00:44:58;;;;;;;5.10;1.38;;;;;;;18.62;66.16;101307.34;5065896;28;20033;-86
2021/10/07 00:47:23;;;;;;;10.55;1.42;;;;;;;18.43;66.47;101298.31;5074665;28;20463;-86
2021/10/07 00:49:48;;;;;;;7.10;1.50;;;;;;;18.34;66.73;101296.47;5074511;28;20025;-86
2021/10/07 00:52:19;;;;;;;8.32;1.55;;;;;;;18.42;66.82;101298.47;5070323;28;20032;-86
2021/10/07 00:54:49;;;;;;;7.30;1.50;;;;;;;18.40;66.37;101301.28;5063821;28;20029;-86
2021/10/07 00:57:19;;;;;;;5.88;1.10;;;;;;;18.38;66.44;101297.03;5074531;28;20024;-85
2021/10/07 00:59:45;;;;;;;6.43;2.05;;;;;;;18.31;66.11;101298.56;5074552;28;20059;-86
2021/10/07 01:02:11;;;;;;;6.50;1.48;;;;;;;18.28;66.62;101299.66;5074206;28;20028;-85
2021/10/07 01:04:36;;;;;;;5.60;1.85;;;;;;;18.33;66.54;101293.97;5074226;28;20116;-85
2021/10/07 01:07:03;;;;;;;5.80;1.60;;;;;;;18.31;66.77;101295.91;5074108;28;20052;-85
2021/10/07 01:09:29;;;;;;;8.98;1.58;;;;;;;18.24;66.80;101304.38;5074170;28;20029;-85
2021/10/07 01:11:56;;;;;;;6.30;1.80;;;;;;;18.27;66.88;101297.16;5074293;28;20111;-85
2021/10/07 01:17:13;;;;;;;5.47;1.90;;;;;;;18.23;67.02;101300.06;5070162;28;20040;-85
2021/10/07 01:19:40;;;;;;;7.32;1.42;;;;;;;18.32;66.95;101306.38;5074044;28;20056;-86
2021/10/07 01:22:06;;;;;;;5.78;1.50;;;;;;;18.40;66.73;101298.63;5074104;28;20070;-85
2021/10/07 01:24:31;;;;;;;10.43;2.20;;;;;;;18.44;66.85;101293.84;5073959;28;20358;-86
2021/10/07 01:26:57;;;;;;;6.10;1.90;;;;;;;18.51;66.95;101297.66;5073757;28;20032;-85
2021/10/07 01:29:22;;;;;;;9.90;1.75;;;;;;;18.52;67.10;101304.69;5073867;28;20027;-85
2021/10/07 01:31:47;;;;;;;10.32;2.13;;;;;;;18.52;67.12;101299.34;5057525;28;20475;-85
2021/10/07 01:34:21;;;;;;;4.82;1.30;;;;;;;18.56;67.60;101303.44;5057692;28;20108;-85
2021/10/07 01:36:46;;;;;;;9.45;1.90;;;;;;;18.63;67.71;101309.88;5074120;28;20030;-86
2021/10/07 01:39:12;;;;;;;7.40;2.17;;;;;;;18.65;67.83;101306.25;5073557;28;20457;-85
2021/10/07 01:41:37;;;;;;;10.60;2.08;;;;;;;18.72;67.92;101315.34;5073617;28;20040;-86
2021/10/07 01:44:03;;;;;;;10.15;2.28;;;;;;;18.69;68.17;101321.81;5073318;28;20039;-85
2021/10/07 01:46:28;;;;;;;11.40;2.63;;;;;;;18.70;68.44;101320.84;5056954;28;20037;-85
2021/10/07 01:48:53;;;;;;;12.75;2.55;;;;;;;18.80;68.33;101328.88;5053999;28;20082;-85
2021/10/07 01:51:19;;;;;;;12.52;2.20;;;;;;;18.86;68.33;101319.50;5053595;28;20025;-85
2021/10/07 01:53:44;;;;;;;10.73;2.17;;;;;;;18.97;68.11;101324.72;5066569;28;20074;-85
2021/10/07 01:56:09;;;;;;;10.68;2.13;;;;;;;18.92;68.37;101317.16;5073263;28;20028;-85
2021/10/07 01:58:35;;;;;;;6.57;1.80;;;;;;;18.94;68.45;101325.84;5073423;28;20013;-85
2021/10/07 02:01:00;;;;;;;10.75;2.58;;;;;;;18.84;68.75;101322.31;5067610;28;20048;-85
2021/10/07 02:03:26;;;;;;;12.00;1.90;;;;;;;18.96;68.50;101317.72;5072704;28;20073;-85
2021/10/07 02:05:51;;;;;;;8.20;1.70;;;;;;;19.02;68.32;101317.16;5073444;28;20020;-85
2021/10/07 02:08:16;;;;;;;8.40;1.70;;;;;;;18.96;68.40;101318.56;5073114;28;20024;-85
2021/10/07 02:10:42;;;;;;;7.43;1.58;;;;;;;19.02;68.46;101323.31;5072151;28;20035;-85
2021/10/07 02:13:07;;;;;;;6.35;1.55;;;;;;;19.05;68.34;101316.88;5072720;28;20106;-85
2021/10/07 02:15:33;;;;;;;9.40;1.85;;;;;;;19.18;68.06;101309.47;5065883;28;20393;-85
2021/10/07 02:17:58;;;;;;;12.10;2.30;;;;;;;19.23;67.81;101314.38;5053021;28;20047;-85
2021/10/07 02:20:23;;;;;;;7.43;1.80;;;;;;;19.22;68.05;101313.56;5053179;28;20387;-85
2021/10/07 02:22:49;;;;;;;10.13;1.90;;;;;;;19.22;67.78;101310.06;5057938;28;20447;-86
2021/10/07 02:25:14;;;;;;;7.50;1.77;;;;;;;19.24;67.89;101309.91;5072856;28;20048;-85
2021/10/07 02:27:40;;;;;;;8.60;1.88;;;;;;;19.31;67.76;101311.91;5072562;28;20087;-85
2021/10/07 02:30:08;;;;;;;8.55;2.25;;;;;;;19.39;67.19;101309.38;5071966;28;20034;-85
2021/10/07 02:32:33;;;;;;;10.10;2.10;;;;;;;19.48;67.35;101310.34;5072098;28;20103;-85
2021/10/07 02:34:59;;;;;;;10.02;2.83;;;;;;;19.52;66.94;101314.41;5071280;28;20455;-85
2021/10/07 02:37:24;;;;;;;13.98;3.25;;;;;;;19.47;67.20;101311.34;5072565;28;20024;-85
2021/10/07 02:39:49;;;;;;;9.82;2.50;;;;;;;19.26;68.23;101302.63;5072646;28;20378;-85
2021/10/07 02:42:15;;;;;;;9.20;2.50;;;;;;;19.36;67.96;101298.97;5069558;28;20032;-85
2021/10/07 02:44:40;;;;;;;13.27;2.30;;;;;;;19.32;68.29;101305.56;5071786;28;20025;-85
2021/10/07 02:47:05;;;;;;;9.77;2.45;;;;;;;19.40;67.88;101311.03;5072445;28;20479;-85
2021/10/07 02:49:31;;;;;;;11.93;2.50;;;;;;;19.49;67.86;101312.03;5072334;28;20111;-85
2021/10/07 02:51:56;;;;;;;7.80;2.85;;;;;;;19.62;67.67;101325.88;5072096;28;20035;-85
2021/10/07 02:54:22;;;;;;;14.25;2.50;;;;;;;19.54;68.10;101323.09;5072206;28;20060;-85
2021/10/07 02:56:47;;;;;;;9.45;1.80;;;;;;;19.49;68.11;101324.50;5069612;28;20413;-86
2021/10/07 02:59:13;;;;;;;8.70;2.22;;;;;;;19.43;68.63;101320.56;5072124;28;20024;-85
2021/10/07 03:01:38;;;;;;;6.80;2.17;;;;;;;19.57;68.10;101325.50;5069874;28;20047;-86
2021/10/07 03:04:03;;;;;;;6.38;2.30;;;;;;;19.58;67.89;101321.81;5072167;28;20029;-85
2021/10/07 03:06:29;;;;;;;9.93;2.92;;;;;;;19.48;68.44;101328.16;5072227;28;20143;-86
2021/10/07 03:08:56;;;;;;;6.70;2.55;;;;;;;19.51;68.33;101322.53;5072191;28;20511;-85
2021/10/07 03:11:22;;;;;;;11.32;2.85;;;;;;;19.47;68.71;101321.13;5071757;28;20039;-85
2021/10/07 03:13:47;;;;;;;10.25;2.58;;;;;;;19.52;68.45;101322.41;5071900;28;20020;-85
2021/10/07 03:16:12;;;;;;;8.18;2.05;;;;;;;19.44;68.90;101316.09;5071178;28;20063;-85
2021/10/07 03:18:38;;;;;;;8.55;2.40;;;;;;;19.43;69.16;101312.56;5070712;28;20024;-85
2021/10/07 03:21:03;;;;;;;7.70;2.55;;;;;;;19.49;69.20;101319.16;5071441;28;20028;-85
2021/10/07 03:23:29;;;;;;;12.70;2.78;;;;;;;19.24;69.32;101312.59;5071805;28;20035;-85
2021/10/07 03:25:54;;;;;;;9.38;2.58;;;;;;;19.03;70.80;101310.84;5072061;28;20475;-86
2021/10/07 03:28:20;;;;;;;10.77;2.42;;;;;;;18.87;71.80;101327.34;5071693;28;20112;-85
2021/10/07 03:30:45;;;;;;;8.63;2.50;;;;;;;18.81;72.39;101325.22;5069720;28;20028;-85
2021/10/07 03:33:11;;;;;;;7.22;2.58;;;;;;;18.87;72.19;101324.69;5071319;28;20106;-85
2021/10/07 03:35:37;;;;;;;7.63;2.53;;;;;;;19.07;71.71;101317.59;5071693;28;20024;-86
2021/10/07 03:38:03;;;;;;;12.82;2.72;;;;;;;19.01;72.35;101321.63;5071874;28;20048;-85
2021/10/07 03:40:29;;;;;;;10.35;2.80;;;;;;;19.03;72.22;101329.47;5071757;28;20138;-85
2021/10/07 03:42:55;;;;;;;5.43;2.88;;;;;;;19.05;72.30;101327.53;5071757;28;20144;-86
2021/10/07 03:45:20;;;;;;;8.80;3.10;;;;;;;19.18;71.70;101328.13;5070999;28;20037;-85
2021/10/07 03:47:45;;;;;;;8.68;2.38;;;;;;;19.14;72.04;101318.72;5070241;28;20036;-85
2021/10/07 03:50:11;;;;;;;5.68;1.77;;;;;;;19.27;71.67;101331.75;5071347;28;20028;-85
2021/10/07 03:52:36;;;;;;;6.82;2.35;;;;;;;19.27;71.63;101326.44;5071604;28;20565;-85
2021/10/07 03:55:02;;;;;;;8.07;2.72;;;;;;;19.24;71.89;101331.22;5071649;28;20029;-85
2021/10/07 03:57:29;;;;;;;7.68;2.30;;;;;;;19.42;71.24;101333.03;5071556;28;20052;-85
2021/10/07 03:59:54;;;;;;;9.00;2.78;;;;;;;19.42;71.21;101325.06;5070604;28;20024;-85
2021/10/07 04:02:20;;;;;;;6.72;2.60;;;;;;;19.41;71.54;101325.19;5052624;28;20075;-85
2021/10/07 04:04:45;;;;;;;8.85;2.63;;;;;;;19.35;71.65;101323.94;5051671;28;20025;-85
2021/10/07 04:07:11;;;;;;;5.72;2.72;;;;;;;19.34;71.79;101322.25;5051503;28;20416;-85
2021/10/07 04:09:36;;;;;;;4.55;2.40;;;;;;;19.52;71.22;101321.56;5071969;28;20033;-86
2021/10/07 04:12:02;;;;;;;5.18;2.03;;;;;;;19.41;71.44;101315.41;5075087;28;20021;-86
2021/10/07 04:14:28;;;;;;;6.15;2.10;;;;;;;19.47;71.67;101323.78;5075378;28;20482;-86
2021/10/07 04:16:53;;;;;;;6.03;3.63;;;;;;;19.63;70.98;101324.09;5068516;28;20024;-85
2021/10/07 04:19:19;;;;;;;6.65;3.10;;;;;;;19.59;71.16;101317.38;5075003;28;20107;-85
2021/10/07 04:21:45;;;;;;;5.32;2.20;;;;;;;19.67;70.64;101322.81;5075475;28;20028;-85
2021/10/07 04:24:11;;;;;;;5.43;2.50;;;;;;;19.72;70.73;101314.44;5075049;28;20028;-85
2021/10/07 04:26:36;;;;;;;7.50;2.47;;;;;;;19.67;70.97;101322.81;5074737;28;20090;-85
2021/10/07 04:29:02;;;;;;;3.53;2.10;;;;;;;19.67;71.11;101324.63;5075027;28;20026;-85
2021/10/07 04:31:28;;;;;;;4.88;2.83;;;;;;;19.64;70.91;101320.44;5074933;28;20028;-85
2021/10/07 04:33:53;;;;;;;5.13;2.40;;;;;;;19.75;70.73;101317.66;5074764;28;20056;-85
2021/10/07 04:36:18;;;;;;;4.10;1.98;;;;;;;19.83;70.46;101329.41;5074419;28;20532;-85
2021/10/07 04:38:44;;;;;;;3.28;2.25;;;;;;;19.80;70.71;101331.38;5074430;28;20040;-85
2021/10/07 04:41:09;;;;;;;4.60;2.50;;;;;;;19.75;70.90;101346.13;5075154;28;20379;-85
2021/10/07 04:43:35;;;;;;;3.55;2.20;;;;;;;19.76;71.23;101339.81;5074613;28;20116;-86
2021/10/07 04:46:00;;;;;;;4.15;2.65;;;;;;;19.81;71.05;101341.06;5074480;28;20151;-85
2021/10/07 04:48:26;;;;;;;6.00;2.70;;;;;;;19.85;71.12;101343.47;5074511;28;20475;-85
2021/10/07 04:50:51;;;;;;;3.30;1.83;;;;;;;19.87;70.93;101337.00;5073335;28;20115;-85
2021/10/07 04:53:16;;;;;;;4.60;2.78;;;;;;;19.90;70.90;101338.53;5074489;28;20025;-85
2021/10/07 04:55:42;;;;;;;5.00;2.42;;;;;;;19.97;70.75;101345.81;5074427;28;20069;-85
2021/10/07 04:58:07;;;;;;;8.93;2.60;;;;;;;19.92;70.98;101344.56;5073868;28;20029;-85
2021/10/07 05:00:33;;;;;;;5.85;2.60;;;;;;;19.89;71.14;101342.19;5074541;28;20025;-85
2021/10/07 05:02:58;;;;;;;3.67;2.15;;;;;;;20.01;70.81;101351.72;5074464;28;20028;-85
2021/10/07 05:05:24;;;;;;;4.32;2.38;;;;;;;20.01;70.60;101349.03;5073846;28;20032;-85
2021/10/07 05:07:49;;;;;;;2.95;2.13;;;;;;;20.03;70.71;101355.06;5074149;28;20027;-86
2021/10/07 05:10:15;;;;;;;3.55;2.08;;;;;;;20.10;70.38;101350.84;5074139;28;20115;-85
2021/10/07 05:12:40;;;;;;;5.32;2.95;;;;;;;20.14;69.73;101343.38;5074236;28;20036;-85
2021/10/07 05:15:08;;;;;;;3.70;2.20;;;;;;;20.07;70.27;101347.63;5073871;28;20032;-85
2021/10/07 05:17:33;;;;;;;3.88;2.65;;;;;;;20.10;70.29;101350.00;5074202;28;20060;-85
2021/10/07 05:19:58;;;;;;;3.17;1.95;;;;;;;20.05;70.52;101352.28;5073042;28;20059;-85
2021/10/07 05:22:24;;;;;;;4.00;2.60;;;;;;;20.11;70.24;101352.53;5074317;28;20059;-85
2021/10/07 05:24:49;;;;;;;4.75;2.72;;;;;;;20.02;70.52;101350.72;5073699;28;20032;-85
2021/10/07 05:27:15;;;;;;;3.45;2.60;;;;;;;20.03;70.57;101360.41;5073680;28;20086;-85
2021/10/07 05:29:40;;;;;;;5.22;2.72;;;;;;;20.08;70.71;101362.63;5073367;28;20059;-85
2021/10/07 05:32:06;;;;;;;3.97;2.85;;;;;;;20.15;70.34;101359.25;5072536;28;20032;-85
2021/10/07 05:34:31;;;;;;;5.85;3.20;;;;;;;20.06;70.72;101359.25;5073987;28;20496;-85
2021/10/07 05:36:57;;;;;;;4.20;2.90;;;;;;;20.04;71.03;101362.06;5074049;28;20028;-85
2021/10/07 05:39:22;;;;;;;5.28;3.20;;;;;;;20.09;70.67;101365.16;5073336;28;20040;-84
2021/10/07 05:41:47;;;;;;;3.72;2.92;;;;;;;20.06;70.76;101353.94;5073731;28;20371;-85
2021/10/07 05:44:13;;;;;;;4.55;2.78;;;;;;;20.03;70.79;101355.06;5073690;28;20025;-85
2021/10/07 05:46:38;;;;;;;4.40;2.97;;;;;;;20.09;71.10;101348.31;5073686;28;20104;-85
2021/10/07 05:49:05;;;;;;;5.07;3.13;;;;;;;20.05;71.30;101346.94;5074431;28;20102;-84
2021/10/07 05:51:31;;;;;;;3.20;2.67;;;;;;;20.10;71.05;101356.19;5074939;28;20067;-85
2021/10/07 05:53:56;;;;;;;4.75;2.70;;;;;;;19.98;71.35;101357.31;5074295;28;20448;-85
2021/10/07 05:56:22;;;;;;;3.22;2.50;;;;;;;19.97;71.14;101360.97;5073320;28;20502;-93
2021/10/07 05:58:47;;;;;;;2.58;1.98;;;;;;;19.96;71.39;101360.13;5070057;28;20013;-94
2021/10/07 06:01:13;;;;;;;3.60;2.35;;;;;;;20.01;71.59;101373.03;5070882;28;20038;-95
2021/10/07 06:03:38;;;;;;;5.18;2.97;;;;;;;20.00;71.08;101366.00;5073150;28;20104;-92
2021/10/07 06:06:04;;;;;;;4.72;3.05;;;;;;;19.94;71.79;101379.91;5073129;28;20108;-93
2021/10/07 06:08:29;;;;;;;3.45;2.50;;;;;;;19.97;71.84;101371.63;5073189;28;20021;-92
2021/10/07 06:10:54;;;;;;;4.05;2.60;;;;;;;20.03;71.56;101368.41;5072771;28;20566;-90
2021/10/07 06:13:20;;;;;;;4.90;2.65;;;;;;;19.99;71.57;101372.34;5071956;28;20031;-92
2021/10/07 06:15:45;;;;;;;3.25;2.53;;;;;;;19.96;71.92;101375.28;5072958;28;20024;-92
2021/10/07 06:18:11;;;;;;;3.10;2.80;;;;;;;20.01;71.58;101373.03;5071877;28;20050;-92
2021/10/07 06:20:37;;;;;;;5.18;3.17;;;;;;;19.96;72.07;101372.59;5055502;28;20049;-92
2021/10/07 06:23:06;;;;;;;4.75;3.10;;;;;;;19.99;72.06;101370.50;5058518;28;20021;-92
2021/10/07 06:25:34;;;;;;;6.65;3.42;;;;;;;20.14;71.38;101378.91;5071384;28;20054;-92
2021/10/07 06:28:00;;;;;;;3.88;3.05;;;;;;;20.13;71.44;101377.22;5065806;28;20027;-93
2021/10/07 06:30:26;;;;;;;5.55;3.70;;;;;;;19.84;72.55;101376.41;5069596;28;20036;-94
2021/10/07 06:32:52;;;;;;;6.72;4.18;;;;;;;19.81;72.81;101372.22;5068105;28;20017;-93
2021/10/07 06:35:18;;;;;;;7.35;3.58;;;;;;;19.81;72.96;101389.03;5051353;28;20033;-92
2021/10/07 06:37:45;;;;;;;6.18;4.25;;;;;;;19.96;72.46;101386.78;5052526;28;20036;-92
2021/10/07 06:40:10;;;;;;;7.50;4.47;;;;;;;19.88;73.08;101388.47;5054741;28;20063;-93
2021/10/07 06:42:36;;;;;;;7.18;4.95;;;;;;;19.89;73.07;101385.66;5072753;28;20048;-93
2021/10/07 06:45:05;;;;;;;4.88;4.30;;;;;;;19.99;72.56;101375.00;5071900;28;20028;-92
2021/10/07 06:47:30;;;;;;;7.13;4.90;;;;;;;19.67;73.90;101365.44;5072830;28;20131;-93
2021/10/07 06:49:56;;;;;;;5.30;4.20;;;;;;;19.89;72.94;101368.84;5070714;28;20593;-93
2021/10/07 06:52:21;;;;;;;6.38;4.68;;;;;;;19.77;73.53;101371.66;5072368;28;20429;-93
2021/10/07 06:54:47;;;;;;;7.38;4.35;;;;;;;19.76;74.00;101380.59;5072318;28;20064;-93
2021/10/07 06:57:12;;;;;;;6.15;4.15;;;;;;;19.80;74.31;101381.16;5071911;28;20039;-94
2021/10/07 06:59:38;;;;;;;9.15;4.30;;;;;;;20.13;72.86;101385.22;5057227;28;20063;-94
2021/10/07 07:02:03;;;;;;;5.22;3.97;;;;;;;20.18;72.51;101385.63;5054774;28;20025;-95
2021/10/07 07:04:29;;;;;;;5.50;3.75;;;;;;;20.29;72.22;101378.47;5072667;28;20036;-92
2021/10/07 07:06:54;;;;;;;5.60;4.57;;;;;;;20.23;72.23;101387.88;5074225;28;20020;-93
2021/10/07 07:09:20;;;;;;;6.20;3.80;;;;;;;20.27;72.44;101388.44;5075010;28;20103;-94
2021/10/07 07:11:45;;;;;;;5.75;4.10;;;;;;;20.28;72.48;101392.75;5072931;28;20112;-91
2021/10/07 07:14:11;;;;;;;7.20;4.95;;;;;;;20.26;72.49;101397.41;5071306;28;20032;-93
2021/10/07 07:16:36;;;;;;;6.53;4.50;;;;;;;20.27;72.63;101396.44;5053279;28;20379;-96
2021/10/07 07:19:02;;;;;;;5.95;4.18;;;;;;;20.35;72.63;101401.88;5050880;28;20444;-93
2021/10/07 07:21:30;;;;;;;5.00;4.05;;;;;;;20.41;72.43;101414.63;5050967;28;20052;-92
2021/10/07 07:23:58;;;;;;;4.82;3.80;;;;;;;20.41;72.39;101411.97;5050847;28;20044;-93
2021/10/07 07:26:24;;;;;;;4.95;3.88;;;;;;;20.50;72.23;101419.13;5050784;28;20066;-92
2021/10/07 07:28:50;;;;;;;4.28;3.63;;;;;;;20.54;72.03;101417.00;5051360;28;20029;-93
2021/10/07 07:31:15;;;;;;;6.57;4.35;;;;;;;20.54;72.03;101404.50;5060778;28;20059;-93
2021/10/07 07:33:40;;;;;;;5.00;4.05;;;;;;;20.67;71.71;101411.38;5071953;28;20504;-93
2021/10/07 07:36:06;;;;;;;4.68;3.80;;;;;;;20.80;71.33;101406.56;5057326;28;20112;-93
2021/10/07 07:38:31;;;;;;;7.28;4.10;;;;;;;20.78;71.01;101411.19;5051389;28;20028;-94
2021/10/07 07:40:57;;;;;;;6.50;4.07;;;;;;;20.82;71.11;101417.91;5068898;28;20482;-93
2021/10/07 07:43:23;;;;;;;7.82;5.00;;;;;;;20.84;70.88;101407.94;5053649;28;20033;-93
2021/10/07 07:45:51;;;;;;;7.20;4.05;;;;;;;20.89;70.83;101423.50;5077492;28;20023;-92
2021/10/07 07:48:17;;;;;;;5.57;3.65;;;;;;;20.98;70.86;101431.47;5075811;28;20382;-94
2021/10/07 07:50:43;;;;;;;6.40;3.70;;;;;;;21.04;70.50;101431.88;5079432;28;20017;-95
2021/10/07 07:53:10;;;;;;;5.18;3.70;;;;;;;21.18;69.91;101428.72;5082638;28;20047;-94
2021/10/07 07:55:37;;;;;;;6.10;3.85;;;;;;;21.12;70.08;101442.66;5058420;28;20454;-94
2021/10/07 07:58:02;;;;;;;3.58;2.75;;;;;;;21.22;69.80;101427.41;5065263;28;20031;-95
2021/10/07 08:00:28;;;;;;;6.47;4.50;;;;;;;21.34;69.17;101426.22;5072329;28;20021;-94
2021/10/07 08:02:53;;;;;;;4.75;3.20;;;;;;;21.39;69.09;101428.47;5074649;28;20029;-94
2021/10/07 08:05:19;;;;;;;3.88;3.00;;;;;;;21.36;68.55;101429.56;5074417;28;20017;-94
2021/10/07 08:07:44;;;;;;;3.20;2.90;;;;;;;21.39;68.80;101433.81;5074853;28;20052;-94
2021/10/07 08:10:11;;;;;;;5.05;3.25;;;;;;;21.34;69.10;101426.22;5079426;28;20028;-94
2021/10/07 08:12:37;;;;;;;4.70;3.30;;;;;;;21.54;67.96;101431.47;5074943;28;20382;-96
2021/10/07 08:15:09;;;;;;;7.40;2.72;;;;;;;21.52;68.63;101436.13;5074922;28;20263;-95
2021/10/07 08:17:34;;;;;;;6.88;2.70;;;;;;;21.46;68.56;101431.38;5074505;28;20452;-95
2021/10/07 08:20:01;;;;;;;3.35;2.78;;;;;;;21.51;69.00;101437.13;5074734;28;20056;-95
2021/10/07 08:22:26;;;;;;;3.70;2.47;;;;;;;21.50;68.59;101435.44;5073504;28;20017;-95
2021/10/07 08:24:53;;;;;;;3.90;2.05;;;;;;;21.54;68.86;101442.16;5074312;28;20119;-94
2021/10/07 08:27:18;;;;;;;2.90;1.92;;;;;;;21.78;67.90;101441.56;5073010;28;20017;-95
2021/10/07 08:29:45;;;;;;;2.85;2.05;;;;;;;21.81;68.47;101437.78;5072690;28;20112;-95
2021/10/07 08:32:11;;;;;;;3.58;1.85;;;;;;;21.70;68.27;101445.03;5073521;28;20112;-95
2021/10/07 08:34:37;;;;;;;2.70;2.15;;;;;;;21.90;67.54;101448.38;5074211;28;20021;-95
2021/10/07 08:37:04;;;;;;;3.90;2.20;;;;;;;21.77;68.06;101443.41;5074291;28;20039;-95
2021/10/07 08:39:30;;;;;;;3.35;1.95;;;;;;;21.92;67.15;101451.75;5074139;28;20032;-96
2021/10/07 08:41:56;;;;;;;3.05;2.20;;;;;;;21.82;68.21;101447.44;5073045;28;20028;-95
2021/10/07 08:44:21;;;;;;;2.05;1.52;;;;;;;21.86;68.37;101454.16;5074031;28;20016;-95
2021/10/07 08:46:48;;;;;;;3.47;1.75;;;;;;;21.99;68.13;101457.31;5074002;28;20514;-96
2021/10/07 08:49:15;;;;;;;2.80;2.20;;;;;;;21.83;68.76;101459.84;5074149;28;20024;-95
2021/10/07 08:51:41;;;;;;;3.20;2.10;;;;;;;22.14;67.06;101455.78;5074119;28;20425;-96
2021/10/07 08:54:08;;;;;;;2.25;1.85;;;;;;;22.13;67.64;101462.09;5075153;28;20491;-95
2021/10/07 08:56:34;;;;;;;2.72;1.75;;;;;;;22.26;67.20;101452.91;5074821;28;20484;-95
2021/10/07 08:59:01;;;;;;;3.78;2.00;;;;;;;22.28;66.56;101450.91;5073743;28;20035;-96
2021/10/07 09:01:39;;;;;;;1.55;1.42;;;;;;;22.59;66.41;101451.28;5074278;28;20016;-95
2021/10/07 09:04:30;;;;;;;2.17;1.48;;;;;;;22.93;65.70;101447.81;5073881;28;20064;-95
2021/10/07 09:06:59;;;;;;;2.22;1.25;;;;;;;23.19;65.68;101442.41;5072807;28;20028;-95
2021/10/07 09:09:25;;;;;;;2.80;1.60;;;;;;;23.56;64.43;101446.56;5065468;28;20032;-94
2021/10/07 09:12:02;;;;;;;4.18;1.67;;;;;;;24.26;61.97;101448.78;5075142;28;20117;-96
2021/10/07 09:14:39;;;;;;;1.17;0.98;;;;;;;25.01;60.31;101446.81;5076081;28;20033;-96
2021/10/07 09:17:07;;;;;;;1.25;1.02;;;;;;;26.06;58.36;101439.16;5090912;28;20096;-96
2021/10/07 09:19:39;;;;;;;1.75;1.10;;;;;;;26.24;56.02;101446.91;5091143;28;20025;-95
2021/10/07 09:22:25;;;;;;;1.27;0.70;;;;;;;26.80;54.98;101445.72;5098279;28;20016;-96
2021/10/07 09:24:57;;;;;;;1.02;0.75;;;;;;;27.09;53.09;101436.75;5214790;22;21007;-96
2021/10/07 09:27:28;;;;;;;3.42;0.40;;;;;;;28.11;51.70;101451.19;5088877;28;20033;-95
2021/10/07 09:30:09;;;;;;;2.38;0.95;;;;;;;28.44;50.36;101444.16;5081943;28;20021;-93
2021/10/07 09:32:45;;;;;;;2.22;0.70;;;;;;;29.42;46.88;101437.81;5075263;28;20048;-94
2021/10/07 09:35:15;;;;;;;1.60;0.60;;;;;;;29.76;46.45;101438.75;5078888;28;20048;-95
2021/10/07 09:37:43;;;;;;;0.93;0.40;;;;;;;29.96;45.88;101450.44;5061516;28;20359;-94
2021/10/07 09:40:11;;;;;;;1.65;0.55;;;;;;;30.23;44.75;101448.56;5066097;28;20040;-95
2021/10/07 09:42:40;;;;;;;2.53;0.43;;;;;;;28.58;46.76;101457.78;5072500;28;20332;-95
2021/10/07 09:45:11;;;;;;;0.50;0.40;;;;;;;30.00;46.63;101456.28;5072999;28;20040;-96
2021/10/07 09:47:40;;;;;;;1.23;0.40;;;;;;;30.08;45.04;101452.53;5073394;28;20023;-96
2021/10/07 09:50:13;;;;;;;2.80;0.63;;;;;;;28.96;45.98;101452.81;5059452;28;20032;-96
2021/10/07 09:52:40;;;;;;;2.42;0.40;;;;;;;28.03;49.20;101460.25;5064654;28;20040;-94
2021/10/07 09:55:13;;;;;;;2.92;0.70;;;;;;;28.49;48.80;101449.78;5065999;28;20120;-95
2021/10/07 09:57:57;;;;;;;0.82;0.60;;;;;;;28.71;48.09;101452.44;5061536;28;20074;-96
2021/10/07 10:00:26;;;;;;;0.65;0.38;;;;;;;29.41;46.24;101441.56;5065496;28;20398;-95
2021/10/07 10:02:54;;;;;;;1.52;0.60;;;;;;;29.16;46.37;101446.69;5066987;28;20055;-96
2021/10/07 10:05:19;;;;;;;0.82;0.50;;;;;;;29.53;47.11;101448.03;5059245;28;20028;-95
2021/10/07 10:07:45;;;;;;;0.55;0.52;;;;;;;28.93;46.02;101455.91;5061672;28;20020;-92
2021/10/07 10:10:13;;;;;;;0.85;0.45;;;;;;;29.18;45.61;101458.13;5059563;28;20056;-93
2021/10/07 10:12:39;;;;;;;0.80;0.50;;;;;;;28.95;46.36;101453.00;5061648;28;20024;-95
2021/10/07 10:15:05;;;;;;;1.05;0.63;;;;;;;27.73;47.97;101454.13;5051998;28;20032;-95
2021/10/07 10:17:33;;;;;;;0.90;0.40;;;;;;;27.15;49.50;101456.75;5055891;28;20052;-94
2021/10/07 10:20:01;;;;;;;1.92;0.85;;;;;;;27.46;49.61;101453.81;5053074;28;20021;-94
2021/10/07 10:22:27;;;;;;;0.47;0.35;;;;;;;27.13;49.71;101456.91;5071114;28;20493;-94
2021/10/07 10:24:53;;;;;;;3.65;0.50;;;;;;;26.88;50.77;101457.22;5069514;28;20035;-94
2021/10/07 10:27:19;;;;;;;2.60;0.52;;;;;;;26.82;50.88;101455.28;5070577;28;20107;-94
2021/10/07 10:29:44;;;;;;;1.65;0.73;;;;;;;26.05;53.25;101460.91;5057192;28;20020;-94
2021/10/07 10:32:13;;;;;;;2.10;0.75;;;;;;;26.24;52.99;101464.94;5051111;28;20036;-93
2021/10/07 10:34:47;;;;;;;2.25;1.15;;;;;;;25.92;53.44;101459.63;5057862;28;20064;-96
2021/10/07 10:37:14;;;;;;;1.23;0.70;;;;;;;25.37;54.28;101470.53;5057995;28;20025;-95
2021/10/07 10:39:45;;;;;;;2.78;0.98;;;;;;;25.51;54.69;101480.53;5052878;28;20033;-95
2021/10/07 10:42:16;;;;;;;1.43;1.00;;;;;;;25.50;54.70;101478.88;5066197;28;20039;-95
2021/10/07 10:44:55;;;;;;;2.30;0.80;;;;;;;25.09;56.03;101471.78;5051967;28;20036;-95
2021/10/07 10:47:25;;;;;;;4.93;1.00;;;;;;;24.68;57.02;101473.78;5068159;28;20111;-95
2021/10/07 10:49:50;;;;;;;1.95;0.95;;;;;;;24.69;57.33;101476.28;5070118;28;20409;-95
2021/10/07 10:52:18;;;;;;;1.90;1.00;;;;;;;24.35;57.89;101479.16;5071816;28;20120;-94
2021/10/07 10:54:47;;;;;;;2.30;1.20;;;;;;;24.52;57.88;101480.84;5052731;28;20036;-95
2021/10/07 10:57:29;;;;;;;3.58;1.25;;;;;;;24.33;58.59;101486.56;5051567;28;20557;-95
2021/10/07 11:00:05;;;;;;;2.17;1.45;;;;;;;24.38;58.07;101478.81;5063572;28;20119;-96
2021/10/07 11:02:31;;;;;;;5.72;1.38;;;;;;;23.99;58.21;101479.47;5051473;28;20064;-95
2021/10/07 11:04:57;;;;;;;4.20;1.70;;;;;;;23.93;59.20;101486.38;5055535;28;20430;-95
2021/10/07 11:07:23;;;;;;;3.35;1.42;;;;;;;24.20;58.85;101495.09;5059486;28;20029;-96
2021/10/07 11:10:17;;;;;;;4.88;1.30;;;;;;;24.48;57.92;101489.38;5051634;28;20368;-95
2021/10/07 11:12:55;;;;;;;2.03;1.10;;;;;;;23.92;59.20;101499.94;5051288;28;20115;-96
2021/10/07 11:15:24;;;;;;;1.88;1.02;;;;;;;24.44;57.46;101488.03;5051781;28;20551;-96
2021/10/07 11:17:51;;;;;;;3.17;0.93;;;;;;;24.52;57.07;101494.25;5051011;28;20037;-96
2021/10/07 11:20:23;;;;;;;2.97;1.00;;;;;;;24.37;58.17;101492.41;5056956;28;20115;-96
2021/10/07 11:23:15;;;;;;;3.85;1.35;;;;;;;24.48;57.59;101500.13;5062317;28;20115;-96
2021/10/07 11:26:07;;;;;;;2.95;1.00;;;;;;;24.56;57.51;101502.00;5051877;28;20035;-95
2021/10/07 11:28:36;;;;;;;7.68;1.63;;;;;;;24.46;57.20;101500.28;5052703;28;20039;-93
2021/10/07 11:33:58;;;;;;;3.03;1.30;;;;;;;24.32;57.82;101507.16;5190223;22;20049;-96